Time;durP1;ratioP1;P1;durP2;ratioP2;P2;SDS_P1;SDS_P2;PMS_P1;PMS_P2;Temp;Humidity;BMP_temperature;BMP_pressure;BME280_temperature;BME280_humidity;BME280_pressure;Samples;Min_cycle;Max_cycle;Signal;HPM_P1;HPM_P2
2023/02/10 00:02:06;;;;;;;8.48;5.32;;;-6.50;99.90;-6.80;98450.00;;;;5071608;28;20223;-69
2023/02/10 00:04:54;;;;;;;5.18;3.95;;;-6.60;99.90;-6.30;98456.00;;;;5071199;28;20207;-71
2023/02/10 00:07:43;;;;;;;8.13;5.40;;;-6.60;99.90;-6.20;98463.00;;;;5070914;28;20207;-71
2023/02/10 00:10:32;;;;;;;4.90;4.07;;;-6.60;99.90;-6.50;98447.00;;;;5070865;28;20236;-69
2023/02/10 00:13:22;;;;;;;6.10;5.50;;;-6.60;99.90;-6.40;98451.00;;;;5070885;28;20227;-70
2023/02/10 00:16:14;;;;;;;6.28;4.65;;;-6.60;99.90;-6.10;98449.00;;;;5071218;28;20675;-70
2023/02/10 00:19:03;;;;;;;5.13;4.45;;;-6.60;99.90;-6.50;98440.00;;;;5068875;28;20196;-71
2023/02/10 00:21:52;;;;;;;7.03;4.65;;;-6.60;99.90;-6.50;98437.00;;;;5069881;28;20204;-71
2023/02/10 00:24:41;;;;;;;6.30;4.85;;;-6.70;99.90;-7.00;98435.00;;;;5067313;28;20203;-72
2023/02/10 00:27:30;;;;;;;1.08;1.08;;;-6.80;99.90;-7.40;98442.00;;;;5069839;28;20269;-72
2023/02/10 00:30:20;;;;;;;6.10;5.05;;;-7.00;99.90;-7.10;98444.00;;;;5068490;28;20200;-71
2023/02/10 00:33:09;;;;;;;1.85;1.67;;;-7.00;99.90;-7.10;98440.00;;;;5069334;28;20235;-73
2023/02/10 00:35:57;;;;;;;9.30;5.50;;;-7.10;99.90;-7.00;98444.00;;;;5073587;28;20737;-70
2023/02/10 00:38:46;;;;;;;13.05;5.68;;;-7.10;99.90;-6.90;98444.00;;;;5070086;28;20200;-69
2023/02/10 00:41:36;;;;;;;7.97;6.07;;;-7.00;99.90;-6.60;98450.00;;;;5068929;28;20228;-71
2023/02/10 00:44:25;;;;;;;7.18;5.28;;;-7.00;99.90;-6.40;98457.00;;;;5069190;28;20265;-71
2023/02/10 00:47:15;;;;;;;10.38;5.80;;;-6.90;99.90;-6.60;98448.00;;;;5070222;28;20192;-71
2023/02/10 00:50:05;;;;;;;3.28;3.05;;;-6.90;99.90;-6.50;98448.00;;;;5069760;28;20255;-71
2023/02/10 00:52:53;;;;;;;4.30;4.00;;;-6.90;99.90;-6.10;98449.00;;;;5070063;28;20224;-71
2023/02/10 00:55:42;;;;;;;6.85;5.03;;;-6.10;99.90;-6.60;98456.00;;;;5070417;28;20226;-70
2023/02/10 00:58:31;;;;;;;7.15;4.30;;;-6.80;99.90;-6.90;98446.00;;;;5068066;28;20713;-69
2023/02/10 01:01:19;;;;;;;7.15;4.28;;;-6.80;99.90;-7.20;98445.00;;;;5069560;28;20203;-70
2023/02/10 01:04:10;;;;;;;2.03;1.63;;;-6.90;99.90;-7.20;98448.00;;;;5057572;28;20200;-70
2023/02/10 01:06:58;;;;;;;7.18;4.25;;;-7.10;99.90;-7.00;98440.00;;;;5067274;28;20283;-71
2023/02/10 01:09:47;;;;;;;4.97;3.72;;;-7.10;99.90;-7.10;98434.00;;;;5068735;28;20679;-68
2023/02/10 01:12:36;;;;;;;9.45;5.07;;;-7.10;99.90;-6.60;98445.00;;;;5067011;28;20606;-69
2023/02/10 01:15:24;;;;;;;7.53;4.78;;;-7.10;99.90;-6.30;98455.00;;;;5070757;28;20943;-69
2023/02/10 01:18:13;;;;;;;5.45;4.95;;;-7.00;99.90;-6.60;98449.00;;;;5069277;28;20251;-69
2023/02/10 01:21:08;;;;;;;3.42;3.13;;;-6.90;99.90;-6.90;98436.00;;;;5070194;28;20249;-69
2023/02/10 01:23:57;;;;;;;8.98;5.28;;;-7.00;99.90;-7.10;98438.00;;;;5069772;28;20227;-69
2023/02/10 01:26:46;;;;;;;5.75;3.85;;;-7.10;99.90;-6.60;98443.00;;;;5069518;28;20200;-70
2023/02/10 01:29:34;;;;;;;5.35;3.78;;;-7.00;99.90;-6.50;98445.00;;;;5067984;28;20219;-69
2023/02/10 01:32:23;;;;;;;4.82;2.47;;;-7.00;99.90;-6.80;98448.00;;;;5070033;28;20215;-71
2023/02/10 01:35:12;;;;;;;4.53;2.17;;;-7.10;99.90;-6.80;98439.00;;;;5071741;28;20633;-71
2023/02/10 01:38:02;;;;;;;6.85;4.65;;;-7.10;99.90;-6.50;98428.00;;;;5068044;28;20222;-72
2023/02/10 01:40:51;;;;;;;4.90;3.63;;;-7.00;99.90;-6.30;98441.00;;;;5066752;28;20216;-71
2023/02/10 01:43:59;;;;;;;8.93;3.67;;;-6.90;99.90;-6.50;98437.00;;;;5068975;28;20216;-71
2023/02/10 01:46:49;;;;;;;6.70;4.03;;;-6.90;99.90;-6.40;98436.00;;;;5067797;28;20578;-71
2023/02/10 01:49:43;;;;;;;5.72;4.57;;;-6.90;99.90;-6.60;98428.00;;;;5067817;28;20627;-71
2023/02/10 01:52:33;;;;;;;3.60;3.03;;;-7.00;99.90;-6.90;98429.00;;;;5069201;28;20230;-71
2023/02/10 01:55:29;;;;;;;5.22;3.83;;;-7.00;99.90;-6.80;98426.00;;;;5069672;28;20214;-69
2023/02/10 01:58:20;;;;;;;5.40;4.22;;;-7.10;99.90;-6.80;98422.00;;;;5069123;28;20634;-69
2023/02/10 02:01:09;;;;;;;5.63;4.35;;;-7.10;99.90;-7.00;98419.00;;;;5069260;28;20250;-70
2023/02/10 02:03:59;;;;;;;3.42;3.10;;;-7.10;99.90;-7.40;98393.00;;;;5069275;28;20224;-70
2023/02/10 02:06:49;;;;;;;5.97;4.85;;;-7.20;99.90;-7.30;98397.00;;;;5069030;28;20199;-70
2023/02/10 02:09:37;;;;;;;5.47;4.97;;;-7.30;99.90;-7.30;98404.00;;;;5066807;28;20207;-70
2023/02/10 02:12:36;;;;;;;1.17;1.08;;;-7.30;99.90;-7.70;98398.00;;;;5067707;28;20220;-71
2023/02/10 02:15:33;;;;;;;4.93;2.80;;;-7.40;99.90;-7.80;98393.00;;;;5056462;28;20200;-68
2023/02/10 02:18:33;;;;;;;4.50;3.72;;;-7.50;99.90;-7.50;98393.00;;;;5068460;28;20224;-72
2023/02/10 02:22:11;;;;;;;15.68;4.82;;;-7.60;99.90;-7.50;98399.00;;;;5068569;28;20233;-70
2023/02/10 02:25:21;;;;;;;2.88;2.50;;;-7.60;99.90;-7.30;98395.00;;;;5068063;28;20249;-73
2023/02/10 02:28:38;;;;;;;3.80;3.60;;;-7.60;99.90;-7.00;98401.00;;;;5067066;28;20695;-72
2023/02/10 02:31:57;;;;;;;3.78;3.47;;;-7.50;99.90;-6.60;98399.00;;;;5067438;28;20265;-73
2023/02/10 02:34:52;;;;;;;3.67;3.03;;;-5.60;99.90;-6.50;98406.00;;;;5067881;28;20218;-73
2023/02/10 02:37:44;;;;;;;5.68;4.60;;;-7.20;99.90;-6.40;98396.00;;;;5066921;28;20216;-73
2023/02/10 02:40:32;;;;;;;5.68;4.93;;;-7.10;99.90;-6.60;98395.00;;;;5069240;28;20337;-70
2023/02/10 02:43:22;;;;;;;3.78;3.22;;;-7.00;99.90;-6.70;98395.00;;;;5058943;28;20212;-71
2023/02/10 02:46:22;;;;;;;6.28;4.53;;;-7.00;99.90;-6.90;98402.00;;;;5068672;28;20207;-72
2023/02/10 02:49:22;;;;;;;4.57;3.80;;;-7.00;99.90;-6.50;98398.00;;;;5067267;28;20208;-72
2023/02/10 02:52:15;;;;;;;6.32;4.88;;;-7.00;99.90;-6.80;98405.00;;;;5065013;28;20216;-72
2023/02/10 02:55:13;;;;;;;4.50;4.05;;;-7.00;99.90;-7.00;98390.00;;;;5069033;28;20200;-70
2023/02/10 02:58:11;;;;;;;3.22;2.95;;;-7.00;99.90;-7.10;98384.00;;;;5067434;28;20595;-71
2023/02/10 03:01:05;;;;;;;2.40;2.20;;;-7.10;99.90;-7.20;98392.00;;;;5067753;28;20659;-72
2023/02/10 03:03:56;;;;;;;5.18;3.70;;;-7.20;99.90;-7.10;98399.00;;;;5066852;28;20227;-70
2023/02/10 03:06:46;;;;;;;6.80;4.90;;;-7.30;99.90;-6.60;98395.00;;;;5068868;28;20196;-71
2023/02/10 03:09:35;;;;;;;5.70;4.30;;;-7.20;99.90;-6.80;98388.00;;;;5067874;28;20630;-71
2023/02/10 03:12:24;;;;;;;3.40;3.10;;;-7.20;99.90;-6.80;98395.00;;;;5066303;28;20216;-72
2023/02/10 03:15:13;;;;;;;6.93;6.05;;;-7.20;99.90;-6.70;98396.00;;;;5067418;28;20613;-70
2023/02/10 03:18:01;;;;;;;4.50;4.10;;;-7.20;99.90;-6.50;98391.00;;;;5068147;28;20745;-71
2023/02/10 03:20:50;;;;;;;6.35;4.70;;;-7.00;99.90;-6.90;98397.00;;;;5069639;28;20196;-73
2023/02/10 03:23:40;;;;;;;3.88;2.55;;;-7.00;99.90;-7.00;98407.00;;;;5069783;28;20223;-70
2023/02/10 03:26:29;;;;;;;4.60;3.80;;;-7.00;99.90;-6.80;98403.00;;;;5069978;28;20203;-69
2023/02/10 03:29:18;;;;;;;10.48;4.78;;;-7.00;99.90;-6.70;98406.00;;;;5071610;28;20196;-71
2023/02/10 03:32:07;;;;;;;3.83;3.40;;;-6.90;99.90;-6.60;98414.00;;;;5071906;28;20219;-70
2023/02/10 03:34:55;;;;;;;3.13;2.75;;;-6.80;99.90;-6.70;98403.00;;;;5074091;28;20228;-70
2023/02/10 03:37:44;;;;;;;3.88;3.25;;;-6.80;99.90;-7.00;98404.00;;;;5071308;28;20196;-68
2023/02/10 03:40:34;;;;;;;8.23;4.63;;;-6.90;99.90;-6.90;98428.00;;;;5071795;28;20246;-72
2023/02/10 03:43:23;;;;;;;2.65;2.35;;;-7.00;99.90;-7.40;98410.00;;;;5071668;28;20258;-67
2023/02/10 03:46:12;;;;;;;8.73;4.30;;;-7.10;99.90;-7.50;98409.00;;;;5072467;28;20466;-70
2023/02/10 03:49:01;;;;;;;2.50;2.28;;;-7.20;99.90;-7.60;98406.00;;;;5069738;28;20201;-72
2023/02/10 03:51:50;;;;;;;6.38;5.32;;;-7.30;99.90;-7.10;98430.00;;;;5065231;28;20227;-70
2023/02/10 03:54:39;;;;;;;2.13;1.98;;;-7.30;99.90;-7.40;98415.00;;;;5060657;28;20200;-73
2023/02/10 03:57:29;;;;;;;4.75;4.22;;;-6.00;99.90;-7.40;98432.00;;;;5071581;28;20200;-72
2023/02/10 04:00:18;;;;;;;3.20;2.92;;;-7.30;99.90;-6.90;98426.00;;;;5071389;28;20281;-72
2023/02/10 04:03:06;;;;;;;6.25;5.72;;;-7.30;99.90;-6.70;98430.00;;;;5071569;28;20232;-70
2023/02/10 04:05:55;;;;;;;8.50;4.45;;;-7.20;99.90;-6.80;98431.00;;;;5071877;28;20207;-68
2023/02/10 04:08:47;;;;;;;3.83;2.88;;;-7.00;99.90;-6.90;98429.00;;;;5070521;28;20659;-73
2023/02/10 04:11:36;;;;;;;5.43;4.07;;;-6.90;99.90;-6.80;98435.00;;;;5070370;28;20204;-73
2023/02/10 04:14:26;;;;;;;4.00;3.35;;;-6.90;99.90;-6.90;98420.00;;;;5071014;28;20223;-68
2023/02/10 04:17:14;;;;;;;2.65;1.98;;;-6.90;99.90;-6.70;98443.00;;;;5058830;28;20770;-69
2023/02/10 04:20:03;;;;;;;6.15;4.50;;;-6.90;99.90;-6.60;98437.00;;;;5071163;28;20269;-70
2023/02/10 04:22:52;;;;;;;3.58;3.30;;;-6.90;99.90;-6.50;98444.00;;;;5069891;28;20220;-70
2023/02/10 04:25:41;;;;;;;5.93;5.07;;;-6.80;99.90;-6.40;98442.00;;;;5070632;28;20227;-72
2023/02/10 04:28:30;;;;;;;5.28;3.95;;;-6.80;99.90;-6.20;98451.00;;;;5069690;28;20207;-72
2023/02/10 04:31:20;;;;;;;7.18;3.30;;;-6.70;99.90;-6.60;98441.00;;;;5068686;28;20660;-70
2023/02/10 04:34:09;;;;;;;3.63;3.33;;;-6.80;99.90;-6.60;98430.00;;;;5069538;28;20235;-72
2023/02/10 04:36:57;;;;;;;2.70;2.53;;;-6.80;99.90;-6.80;98429.00;;;;5066212;28;20594;-72
2023/02/10 04:39:46;;;;;;;8.50;6.18;;;-6.90;99.90;-6.80;98424.00;;;;5059711;28;20228;-72
2023/02/10 04:42:35;;;;;;;7.13;6.43;;;-7.00;99.90;-6.80;98424.00;;;;5068960;28;20253;-73
2023/02/10 04:45:24;;;;;;;4.97;3.63;;;-7.00;99.90;-7.00;98421.00;;;;5068817;28;20232;-73
2023/02/10 04:48:15;;;;;;;12.95;3.42;;;-7.10;99.90;-6.90;98424.00;;;;5066332;28;20208;-74
2023/02/10 04:51:08;;;;;;;9.00;4.20;;;-7.00;99.90;-6.80;98425.00;;;;5070784;28;20210;-71
2023/02/10 04:53:56;;;;;;;6.47;3.00;;;-7.00;99.90;-6.50;98446.00;;;;5070289;28;20231;-72
2023/02/10 04:56:45;;;;;;;6.00;4.30;;;-7.00;99.90;-6.60;98438.00;;;;5070559;28;20192;-73
2023/02/10 04:59:34;;;;;;;2.35;2.15;;;-7.00;99.90;-6.60;98442.00;;;;5070314;28;20228;-73
2023/02/10 05:02:23;;;;;;;3.40;3.20;;;-7.00;99.90;-6.80;98439.00;;;;5069957;28;20717;-71
2023/02/10 05:05:14;;;;;;;5.38;4.22;;;-7.00;99.90;-6.40;98453.00;;;;5070712;28;20203;-70
2023/02/10 05:08:02;;;;;;;6.22;5.43;;;-6.90;99.90;-6.80;98443.00;;;;5069294;28;20489;-70
2023/02/10 05:10:52;;;;;;;0.70;0.70;;;-6.90;99.90;-7.10;98445.00;;;;5065167;28;20212;-71
2023/02/10 05:13:41;;;;;;;5.93;3.38;;;-7.00;99.90;-7.60;98444.00;;;;5071706;28;20250;-69
2023/02/10 05:16:30;;;;;;;7.75;3.92;;;-7.20;99.90;-7.40;98449.00;;;;5064274;28;20292;-69
2023/02/10 05:19:18;;;;;;;4.70;3.33;;;-7.20;99.90;-7.10;98444.00;;;;5069608;28;20722;-71
2023/02/10 05:22:09;;;;;;;9.73;5.38;;;-7.20;99.90;-6.60;98454.00;;;;5057379;28;20220;-72
2023/02/10 05:24:57;;;;;;;5.88;4.22;;;-7.10;99.90;-6.70;98459.00;;;;5069791;28;20196;-71
2023/02/10 05:27:47;;;;;;;5.70;4.03;;;-7.10;99.90;-6.90;98457.00;;;;5068426;28;20211;-72
2023/02/10 05:30:35;;;;;;;2.92;2.75;;;-7.10;99.90;-7.60;98453.00;;;;5069576;28;20234;-73
2023/02/10 05:33:24;;;;;;;7.32;5.30;;;-7.20;99.90;-7.40;98459.00;;;;5057124;28;20687;-69
2023/02/10 05:36:13;;;;;;;4.65;4.05;;;-7.40;99.90;-7.40;98453.00;;;;5067787;28;20277;-72
2023/02/10 05:42:09;;;;;;;7.03;4.22;;;-7.50;99.90;-7.30;98461.00;;;;5065610;28;20231;-73
2023/02/10 05:44:58;;;;;;;5.47;3.70;;;-7.50;99.90;-7.10;98462.00;;;;5058565;28;20552;-72
2023/02/10 05:47:47;;;;;;;9.98;5.28;;;-7.50;99.90;-7.00;98461.00;;;;5067944;28;20208;-71
2023/02/10 05:50:35;;;;;;;4.68;4.22;;;-5.30;99.90;-7.00;98460.00;;;;5066123;28;20199;-71
2023/02/10 05:53:24;;;;;;;5.70;4.22;;;-7.40;99.90;-7.00;98466.00;;;;5068780;28;20695;-71
2023/02/10 05:56:14;;;;;;;6.57;5.93;;;-7.40;99.90;-7.30;98459.00;;;;5069482;28;20215;-72
2023/02/10 05:59:03;;;;;;;7.20;5.00;;;-7.40;99.90;-7.60;98459.00;;;;5066402;28;20674;-71
2023/02/10 06:01:52;;;;;;;5.70;4.25;;;-7.50;99.90;-7.60;98457.00;;;;5063804;28;20208;-69
2023/02/10 06:04:41;;;;;;;0.63;0.63;;;-7.60;99.90;-7.80;98461.00;;;;5066712;28;20739;-72
2023/02/10 06:07:29;;;;;;;6.20;4.43;;;-7.60;99.90;-7.60;98462.00;;;;5065005;28;20218;-72
2023/02/10 06:10:18;;;;;;;6.28;4.13;;;-7.70;99.90;-7.70;98471.00;;;;5064984;28;20204;-71
2023/02/10 06:13:08;;;;;;;4.30;3.80;;;-7.50;99.90;-7.50;98478.00;;;;5066793;28;20620;-72
2023/02/10 06:15:57;;;;;;;6.47;4.00;;;-7.70;99.90;-7.90;98479.00;;;;5067510;28;20238;-72
2023/02/10 06:18:47;;;;;;;3.08;2.58;;;-7.80;99.90;-7.90;98477.00;;;;5068825;28;20211;-68
2023/02/10 06:21:36;;;;;;;6.13;4.72;;;-7.80;99.90;-8.10;98470.00;;;;5067309;28;20203;-70
2023/02/10 06:24:25;;;;;;;2.38;2.17;;;-7.80;99.90;-8.00;98480.00;;;;5064311;28;20242;-74
2023/02/10 06:27:14;;;;;;;3.15;2.33;;;-7.90;99.90;-7.90;98484.00;;;;5066036;28;20203;-71
2023/02/10 06:30:05;;;;;;;6.18;5.10;;;-7.90;99.90;-7.60;98493.00;;;;5054853;28;20693;-71
2023/02/10 06:32:53;;;;;;;4.57;3.55;;;-7.90;99.90;-7.60;98501.00;;;;5065054;28;20219;-71
2023/02/10 06:35:42;;;;;;;8.65;4.82;;;-7.80;99.90;-8.00;98494.00;;;;5068645;28;20611;-69
2023/02/10 06:38:31;;;;;;;3.22;2.13;;;-7.90;99.90;-8.20;98498.00;;;;5057214;28;20245;-69
2023/02/10 06:41:19;;;;;;;3.17;2.88;;;-7.90;99.90;-8.10;98501.00;;;;5065764;28;20256;-69
2023/02/10 06:44:08;;;;;;;2.83;2.60;;;-7.90;99.90;-8.10;98500.00;;;;5063734;28;20223;-73
2023/02/10 06:46:58;;;;;;;1.20;1.20;;;-7.90;99.90;-7.70;98506.00;;;;5063740;28;20196;-72
2023/02/10 06:49:47;;;;;;;8.88;4.60;;;-7.80;99.90;-7.20;98509.00;;;;5061374;28;20200;-72
2023/02/10 06:52:37;;;;;;;6.47;5.88;;;-7.70;99.90;-6.80;98526.00;;;;5064884;28;20216;-72
2023/02/10 06:55:26;;;;;;;13.65;5.13;;;-7.50;99.90;-7.20;98523.00;;;;5070659;28;21057;-74
2023/02/10 06:58:16;;;;;;;12.90;7.70;;;-7.40;99.90;-7.90;98502.00;;;;5070866;28;20208;-73
2023/02/10 07:01:08;;;;;;;7.68;5.78;;;-7.50;99.90;-7.80;98515.00;;;;5072313;28;20222;-72
2023/02/10 07:03:58;;;;;;;10.13;8.60;;;-7.60;99.90;-7.50;98529.00;;;;5071962;28;20232;-69
2023/02/10 07:06:47;;;;;;;4.50;2.58;;;-7.50;99.90;-7.30;98541.00;;;;5069465;28;20275;-74
2023/02/10 07:09:37;;;;;;;8.77;6.75;;;-7.50;99.90;-7.10;98543.00;;;;5068365;28;20913;-70
2023/02/10 07:12:26;;;;;;;4.15;3.63;;;-6.30;99.90;-6.80;98561.00;;;;5070406;28;20235;-74
2023/02/10 07:15:17;;;;;;;10.32;7.25;;;-6.90;99.90;-7.30;98545.00;;;;5072233;28;20207;-73
2023/02/10 07:18:05;;;;;;;10.48;7.60;;;-5.50;99.90;-7.10;98550.00;;;;5066550;28;20267;-74
2023/02/10 07:20:55;;;;;;;8.48;4.70;;;-7.20;99.90;-7.10;98541.00;;;;5072310;28;20222;-73
2023/02/10 07:23:44;;;;;;;7.38;5.25;;;-7.20;99.90;-7.20;98555.00;;;;5072175;28;20220;-74
2023/02/10 07:26:33;;;;;;;8.52;5.15;;;-7.20;99.90;-6.90;98541.00;;;;5070323;28;20810;-73
2023/02/10 07:29:22;;;;;;;5.40;4.88;;;-7.10;99.90;-6.60;98559.00;;;;5070486;28;20215;-73
2023/02/10 07:32:11;;;;;;;10.48;5.85;;;-7.00;99.90;-6.80;98553.00;;;;5071888;28;20293;-71
2023/02/10 07:34:59;;;;;;;8.57;4.43;;;-6.90;99.90;-6.60;98556.00;;;;5075025;28;20604;-70
2023/02/10 07:37:49;;;;;;;2.25;2.03;;;-6.90;99.90;-6.60;98557.00;;;;5071641;28;20743;-71
2023/02/10 07:40:38;;;;;;;8.13;6.57;;;-6.90;99.90;-5.90;98569.00;;;;5071686;28;20255;-75
2023/02/10 07:43:29;;;;;;;3.70;3.40;;;-6.70;99.90;-5.80;98558.00;;;;5062450;28;20212;-76
2023/02/10 07:46:18;;;;;;;1.20;1.10;;;-6.50;99.90;-5.60;98570.00;;;;5071619;28;20249;-75
2023/02/10 07:49:07;;;;;;;4.60;3.97;;;-6.20;99.90;-4.80;98582.00;;;;5071749;28;20223;-76
2023/02/10 07:51:55;;;;;;;8.40;5.70;;;-6.00;99.90;-5.00;98580.00;;;;5071579;28;20434;-75
2023/02/10 07:54:45;;;;;;;5.40;4.43;;;-5.90;99.90;-4.50;98583.00;;;;5072670;28;20667;-75
2023/02/10 07:57:34;;;;;;;2.73;2.53;;;-5.70;99.90;-4.10;98586.00;;;;5071559;28;20454;-76
2023/02/10 08:00:23;;;;;;;1.53;1.47;;;-5.30;99.90;-4.90;98577.00;;;;5071339;28;20486;-75
2023/02/10 08:03:15;;;;;;;7.90;5.40;;;-5.20;99.90;-4.40;98585.00;;;;5061820;28;20470;-76
2023/02/10 08:06:05;;;;;;;4.47;4.03;;;-5.00;99.90;-4.30;98581.00;;;;5068852;28;20472;-77
2023/02/10 08:08:54;;;;;;;8.63;3.80;;;-5.00;99.90;-4.10;98589.00;;;;5068648;28;20941;-77
2023/02/10 08:11:44;;;;;;;7.67;4.77;;;-5.00;99.90;-4.00;98596.00;;;;5067028;28;20423;-76
2023/02/10 08:14:33;;;;;;;1.17;1.17;;;-4.60;99.90;-3.90;98579.00;;;;5066700;28;20442;-75
2023/02/10 08:17:21;;;;;;;12.77;4.57;;;-4.40;99.90;-3.50;98583.00;;;;5069169;28;20415;-75
2023/02/10 08:20:11;;;;;;;8.17;4.50;;;-4.40;99.90;-3.00;98585.00;;;;5068629;28;20426;-77
2023/02/10 08:23:00;;;;;;;5.93;4.17;;;-4.10;99.90;-2.60;98593.00;;;;5071378;28;20454;-76
2023/02/10 08:25:49;;;;;;;5.60;4.53;;;-4.00;99.90;-2.80;98592.00;;;;5071261;28;20472;-76
2023/02/10 08:28:41;;;;;;;6.43;3.40;;;-3.70;99.90;-2.30;98591.00;;;;5070988;28;20415;-75
2023/02/10 08:31:30;;;;;;;4.40;3.27;;;-3.50;99.90;-2.20;98590.00;;;;5069565;28;20480;-75
2023/02/10 08:34:20;;;;;;;8.53;5.93;;;-3.30;99.90;-2.00;98592.00;;;;5072362;28;20421;-76
2023/02/10 08:37:09;;;;;;;7.73;6.03;;;-3.10;99.90;-1.80;98600.00;;;;5070779;28;20414;-75
2023/02/10 08:39:58;;;;;;;6.37;4.53;;;-2.90;99.90;-1.70;98596.00;;;;5070782;28;20437;-77
2023/02/10 08:42:47;;;;;;;6.30;4.10;;;-2.20;99.90;-1.50;98595.00;;;;5070423;28;20447;-77
2023/02/10 08:45:40;;;;;;;5.63;4.33;;;-2.50;99.90;-1.40;98595.00;;;;5070073;28;20421;-76
2023/02/10 08:48:30;;;;;;;7.90;4.77;;;-2.60;99.90;-1.30;98599.00;;;;5069893;28;20480;-77
2023/02/10 08:51:18;;;;;;;6.07;5.17;;;-2.30;99.90;-1.40;98603.00;;;;5070848;28;20823;-77
2023/02/10 08:54:07;;;;;;;7.43;2.80;;;-2.30;99.90;-1.60;98594.00;;;;5068212;28;20541;-74
2023/02/10 08:56:56;;;;;;;4.57;2.83;;;-2.10;99.90;-1.70;98593.00;;;;5064024;28;20999;-76
2023/02/10 08:59:45;;;;;;;7.97;4.57;;;-2.10;99.90;-1.30;98598.00;;;;5070347;28;20422;-75
2023/02/10 09:02:35;;;;;;;11.97;5.03;;;-2.00;99.90;-0.90;98610.00;;;;5069654;28;20465;-76
2023/02/10 09:05:24;;;;;;;6.43;3.37;;;-1.90;99.90;-1.80;98592.00;;;;5067837;28;20426;-75
2023/02/10 09:08:14;;;;;;;11.20;5.23;;;-1.70;99.90;-1.10;98602.00;;;;5069258;28;20431;-76
2023/02/10 09:11:05;;;;;;;7.47;4.83;;;-1.80;99.90;-1.10;98610.00;;;;5069580;28;20939;-75
2023/02/10 09:13:54;;;;;;;3.77;2.90;;;-1.80;99.90;-1.10;98609.00;;;;5057546;28;20458;-76
2023/02/10 09:16:43;;;;;;;4.90;4.20;;;-1.70;99.90;-0.90;98619.00;;;;5069945;28;20467;-74
2023/02/10 09:19:33;;;;;;;6.63;5.00;;;-1.60;99.50;-0.50;98628.00;;;;5066443;28;20434;-74
2023/02/10 09:22:22;;;;;;;7.47;4.20;;;-1.50;99.90;-0.10;98620.00;;;;5068968;28;20866;-75
2023/02/10 09:25:11;;;;;;;7.30;4.77;;;-1.30;99.90;0.20;98626.00;;;;5066102;28;20426;-76
2023/02/10 09:28:00;;;;;;;12.63;4.67;;;-1.00;99.30;0.30;98627.00;;;;5068507;28;20434;-74
2023/02/10 09:30:49;;;;;;;4.37;3.97;;;-1.10;98.60;0.30;98623.00;;;;5068724;28;20428;-76
2023/02/10 09:33:38;;;;;;;6.87;5.00;;;-1.00;98.30;0.40;98625.00;;;;5059096;28;20455;-72
2023/02/10 09:36:28;;;;;;;6.97;5.20;;;-0.60;97.80;0.80;98639.00;;;;5069300;28;20497;-75
2023/02/10 09:39:16;;;;;;;7.10;3.73;;;-0.50;97.30;0.90;98622.00;;;;5069603;28;20815;-74
2023/02/10 09:42:14;;;;;;;9.40;4.37;;;-0.10;96.80;1.50;98621.00;;;;5068966;28;20481;-76
2023/02/10 09:45:12;;;;;;;8.73;4.67;;;0.10;97.10;1.20;98630.00;;;;5070136;28;20455;-76
2023/02/10 09:48:13;;;;;;;7.10;4.30;;;0.10;95.70;1.60;98621.00;;;;5068501;28;20422;-76
2023/02/10 09:51:12;;;;;;;5.70;3.50;;;0.10;95.60;2.00;98623.00;;;;5067087;28;20419;-75
2023/02/10 09:54:03;;;;;;;10.60;5.10;;;0.50;95.10;1.60;98621.00;;;;5068686;28;20437;-72
2023/02/10 09:56:51;;;;;;;6.67;4.83;;;0.20;94.10;2.20;98627.00;;;;5069003;28;20426;-76
2023/02/10 09:59:42;;;;;;;6.27;4.23;;;0.80;94.40;2.50;98630.00;;;;5068946;28;20423;-73
2023/02/10 10:02:35;;;;;;;7.90;4.93;;;0.70;94.40;2.40;98634.00;;;;5067658;28;20467;-76
2023/02/10 10:05:39;;;;;;;8.63;4.93;;;1.50;93.40;2.50;98618.00;;;;5069220;28;20867;-75
2023/02/10 10:08:40;;;;;;;7.57;5.37;;;0.90;92.60;2.60;98619.00;;;;5067148;28;20426;-75
2023/02/10 10:11:37;;;;;;;8.80;5.00;;;1.20;91.90;2.60;98624.00;;;;5069141;28;21169;-75
2023/02/10 10:14:29;;;;;;;12.73;5.07;;;1.50;92.10;3.10;98619.00;;;;5068540;28;20800;-75
2023/02/10 10:17:46;;;;;;;11.60;4.43;;;1.60;91.60;3.10;98619.00;;;;5069084;28;20426;-75
2023/02/10 10:20:51;;;;;;;7.67;3.63;;;1.90;91.10;3.50;98612.00;;;;5068004;28;20552;-71
2023/02/10 10:24:01;;;;;;;8.20;5.23;;;2.10;90.80;3.90;98616.00;;;;5069138;28;20450;-77
2023/02/10 10:27:07;;;;;;;5.17;4.40;;;2.50;90.40;3.70;98611.00;;;;5068827;28;20423;-71
2023/02/10 10:30:00;;;;;;;7.33;4.13;;;2.50;89.10;4.00;98609.00;;;;5066067;28;20426;-70
2023/02/10 10:32:55;;;;;;;7.80;4.03;;;2.70;88.30;4.00;98604.00;;;;5069028;28;20458;-75
2023/02/10 10:35:45;;;;;;;5.37;4.00;;;2.40;86.30;4.50;98597.00;;;;5072225;28;20414;-72
2023/02/10 10:38:39;;;;;;;10.17;5.23;;;2.90;86.80;4.80;98599.00;;;;5072283;28;20426;-73
2023/02/10 10:41:31;;;;;;;8.30;4.73;;;3.30;86.90;5.20;98601.00;;;;5059762;28;21102;-72
2023/02/10 10:44:22;;;;;;;9.83;5.47;;;3.30;86.70;5.80;98597.00;;;;5072332;28;20434;-72
2023/02/10 10:47:17;;;;;;;6.03;4.67;;;3.90;87.10;6.40;98602.00;;;;5071921;28;20418;-75
2023/02/10 10:50:09;;;;;;;6.73;4.30;;;5.00;82.40;6.90;98615.00;;;;5072004;28;20192;-74
2023/02/10 10:53:12;;;;;;;9.47;5.13;;;5.90;78.90;7.10;98595.00;;;;5071945;28;20227;-74
2023/02/10 10:56:06;;;;;;;11.97;4.80;;;6.70;73.80;7.70;98598.00;;;;5071457;28;20207;-76
2023/02/10 10:58:54;;;;;;;8.50;6.57;;;7.40;70.20;7.50;98600.00;;;;5071603;28;20215;-72
2023/02/10 11:01:48;;;;;;;8.93;4.80;;;7.60;67.20;8.70;98597.00;;;;5071202;28;20743;-72
2023/02/10 11:04:40;;;;;;;9.77;5.77;;;8.00;68.30;9.10;98587.00;;;;5072556;28;20575;-72
2023/02/10 11:07:32;;;;;;;7.40;5.73;;;8.40;66.00;9.70;98590.00;;;;5065431;28;20664;-72
2023/02/10 11:10:25;;;;;;;7.27;5.53;;;8.80;65.50;9.70;98592.00;;;;5069632;28;20237;-72
2023/02/10 11:13:20;;;;;;;12.43;5.80;;;9.20;62.20;9.70;98583.00;;;;5069148;28;20457;-72
2023/02/10 11:16:12;;;;;;;8.30;6.53;;;9.30;58.90;8.40;98572.00;;;;5068560;28;20215;-70
2023/02/10 11:19:03;;;;;;;7.10;5.63;;;8.90;57.90;10.00;98575.00;;;;5071565;28;20667;-70
2023/02/10 11:21:53;;;;;;;14.67;5.47;;;8.90;61.10;10.30;98571.00;;;;5071906;28;20228;-70
2023/02/10 11:24:51;;;;;;;12.60;5.10;;;9.10;59.20;10.20;98563.00;;;;5071541;28;20733;-72
2023/02/10 11:27:51;;;;;;;8.73;4.87;;;9.40;57.50;10.30;98561.00;;;;5072263;28;20196;-73
2023/02/10 11:30:40;;;;;;;11.63;5.43;;;9.40;57.60;10.20;98559.00;;;;5070580;28;20200;-72
2023/02/10 11:33:32;;;;;;;9.07;4.80;;;9.50;56.60;10.60;98568.00;;;;5060528;28;20219;-72
2023/02/10 11:36:35;;;;;;;5.40;3.97;;;9.60;57.60;10.50;98555.00;;;;5070177;28;20675;-73
2023/02/10 11:39:28;;;;;;;8.40;4.40;;;9.70;54.70;11.00;98554.00;;;;5070392;28;20203;-72
2023/02/10 11:42:22;;;;;;;8.93;5.60;;;9.70;55.70;11.10;98548.00;;;;5069056;28;20227;-72
2023/02/10 11:45:20;;;;;;;6.47;4.50;;;9.80;54.80;11.80;98555.00;;;;5069514;28;20675;-72
2023/02/10 11:48:18;;;;;;;5.50;4.00;;;9.90;56.30;11.10;98542.00;;;;5068394;28;20208;-72
2023/02/10 11:51:18;;;;;;;7.70;5.37;;;10.30;53.60;12.30;98548.00;;;;5059044;28;20196;-72
2023/02/10 11:54:12;;;;;;;9.50;4.40;;;10.40;54.90;12.30;98553.00;;;;5073084;28;20223;-72
2023/02/10 12:00:34;;;;;;;9.13;5.87;;;10.70;53.00;13.10;98564.00;;;;5071790;28;20204;-73
2023/02/10 12:03:39;;;;;;;12.17;5.30;;;11.00;53.40;13.20;98555.00;;;;5072129;28;20224;-73
2023/02/10 12:06:36;;;;;;;4.57;3.67;;;11.40;52.80;13.50;98542.00;;;;5071516;28;20254;-73
2023/02/10 12:09:33;;;;;;;11.07;4.13;;;11.80;51.40;13.80;98549.00;;;;5065606;28;20184;-73
2023/02/10 12:12:33;;;;;;;5.20;4.20;;;12.10;51.70;13.90;98537.00;;;;5065976;28;20265;-72
2023/02/10 12:15:39;;;;;;;7.70;4.27;;;12.20;49.50;14.30;98541.00;;;;5070678;28;20199;-74
2023/02/10 12:18:51;;;;;;;3.97;3.20;;;12.50;49.80;12.70;98528.00;;;;5071920;28;20203;-72
2023/02/10 12:22:07;;;;;;;6.25;4.40;;;12.50;47.50;13.00;98531.00;;;;5069826;28;20392;-72
2023/02/10 12:25:15;;;;;;;8.30;3.53;;;12.30;48.00;14.20;98526.00;;;;5074971;28;20224;-72
2023/02/10 12:28:11;;;;;;;4.43;3.13;;;12.20;48.50;14.10;98510.00;;;;5077358;28;20198;-71
2023/02/10 12:31:14;;;;;;;4.03;3.30;;;12.40;47.60;14.10;98503.00;;;;5070532;28;20204;-72
2023/02/10 12:34:41;;;;;;;4.13;3.03;;;12.60;47.50;13.50;98493.00;;;;5066606;28;21028;-71
2023/02/10 12:37:39;;;;;;;5.93;3.13;;;12.60;46.40;14.40;98501.00;;;;5069752;28;20554;-70
2023/02/10 12:41:00;;;;;;;5.00;3.40;;;12.80;46.80;14.40;98500.00;;;;5078509;28;20248;-70
2023/02/10 12:44:21;;;;;;;5.37;3.40;;;13.00;46.10;14.10;98494.00;;;;5070655;28;20285;-69
2023/02/10 12:47:28;;;;;;;5.73;4.20;;;13.40;45.70;14.10;98488.00;;;;5070352;28;20192;-70
2023/02/10 12:50:35;;;;;;;4.07;3.30;;;13.50;45.30;14.00;98484.00;;;;5070139;28;20206;-70
2023/02/10 12:53:27;;;;;;;4.77;3.43;;;13.70;44.70;14.20;98475.00;;;;5069783;28;20226;-69